sensor_id;sensor_type;location;lat;lon;timestamp;temperature;humidity
61145;DHT22;47026;51.208;3.288;2022-07-31T00:01:13;19.80;99.90
61145;DHT22;47026;51.208;3.288;2022-07-31T00:03:40;19.80;99.90
61145;DHT22;47026;51.208;3.288;2022-07-31T00:06:07;19.70;99.90
61145;DHT22;47026;51.208;3.288;2022-07-31T00:08:33;19.70;99.90
61145;DHT22;47026;51.208;3.288;2022-07-31T00:10:59;19.60;99.90
61145;DHT22;47026;51.208;3.288;2022-07-31T00:13:25;19.50;99.90
61145;DHT22;47026;51.208;3.288;2022-07-31T00:15:51;19.40;99.90
61145;DHT22;47026;51.208;3.288;2022-07-31T00:18:17;19.40;99.90
61145;DHT22;47026;51.208;3.288;2022-07-31T00:20:43;19.40;99.90
61145;DHT22;47026;51.208;3.288;2022-07-31T00:23:09;19.50;99.90
61145;DHT22;47026;51.208;3.288;2022-07-31T00:25:35;19.50;99.90
61145;DHT22;47026;51.208;3.288;2022-07-31T00:28:02;19.50;99.90
61145;DHT22;47026;51.208;3.288;2022-07-31T00:30:28;19.50;99.90
61145;DHT22;47026;51.208;3.288;2022-07-31T00:32:54;19.40;99.90
61145;DHT22;47026;51.208;3.288;2022-07-31T00:35:20;19.40;99.90
61145;DHT22;47026;51.208;3.288;2022-07-31T00:37:45;19.30;99.90
61145;DHT22;47026;51.208;3.288;2022-07-31T00:40:13;19.40;99.90
61145;DHT22;47026;51.208;3.288;2022-07-31T00:42:40;19.40;99.90
61145;DHT22;47026;51.208;3.288;2022-07-31T00:45:07;19.20;99.90
61145;DHT22;47026;51.208;3.288;2022-07-31T00:47:32;19.30;99.90
61145;DHT22;47026;51.208;3.288;2022-07-31T00:49:58;19.10;99.90
61145;DHT22;47026;51.208;3.288;2022-07-31T00:52:24;19.20;99.90
61145;DHT22;47026;51.208;3.288;2022-07-31T00:54:50;19.20;99.90
61145;DHT22;47026;51.208;3.288;2022-07-31T00:57:16;19.10;99.90
61145;DHT22;47026;51.208;3.288;2022-07-31T00:59:43;19.10;99.90
61145;DHT22;47026;51.208;3.288;2022-07-31T01:02:09;19.10;99.90
61145;DHT22;47026;51.208;3.288;2022-07-31T01:04:35;19.10;99.90
61145;DHT22;47026;51.208;3.288;2022-07-31T01:07:01;19.10;99.90
61145;DHT22;47026;51.208;3.288;2022-07-31T01:09:27;19.20;99.90
61145;DHT22;47026;51.208;3.288;2022-07-31T01:12:11;19.10;99.90
61145;DHT22;47026;51.208;3.288;2022-07-31T01:14:40;19.00;99.90
61145;DHT22;47026;51.208;3.288;2022-07-31T01:17:08;19.10;99.90
61145;DHT22;47026;51.208;3.288;2022-07-31T01:19:40;19.20;99.90
61145;DHT22;47026;51.208;3.288;2022-07-31T01:25:10;19.20;99.90
61145;DHT22;47026;51.208;3.288;2022-07-31T01:30:22;19.10;99.90
61145;DHT22;47026;51.208;3.288;2022-07-31T01:32:50;19.20;99.90
61145;DHT22;47026;51.208;3.288;2022-07-31T01:35:26;19.10;99.90
61145;DHT22;47026;51.208;3.288;2022-07-31T01:38:03;19.10;99.90
61145;DHT22;47026;51.208;3.288;2022-07-31T01:40:33;19.10;99.90
61145;DHT22;47026;51.208;3.288;2022-07-31T01:43:10;19.10;99.90
61145;DHT22;47026;51.208;3.288;2022-07-31T01:45:40;19.10;99.90
61145;DHT22;47026;51.208;3.288;2022-07-31T01:48:12;19.10;99.90
61145;DHT22;47026;51.208;3.288;2022-07-31T01:50:41;19.00;99.90
61145;DHT22;47026;51.208;3.288;2022-07-31T01:53:11;19.00;99.90
61145;DHT22;47026;51.208;3.288;2022-07-31T01:55:39;19.10;99.90
61145;DHT22;47026;51.208;3.288;2022-07-31T01:58:06;19.20;99.90
61145;DHT22;47026;51.208;3.288;2022-07-31T02:00:34;19.20;99.90
61145;DHT22;47026;51.208;3.288;2022-07-31T02:03:00;19.20;99.90
61145;DHT22;47026;51.208;3.288;2022-07-31T02:05:27;19.20;99.90
61145;DHT22;47026;51.208;3.288;2022-07-31T02:07:54;19.10;99.90
61145;DHT22;47026;51.208;3.288;2022-07-31T02:10:20;19.00;99.90
61145;DHT22;47026;51.208;3.288;2022-07-31T02:12:48;19.10;99.90
61145;DHT22;47026;51.208;3.288;2022-07-31T02:15:16;19.10;99.90
61145;DHT22;47026;51.208;3.288;2022-07-31T02:17:44;19.00;99.90
61145;DHT22;47026;51.208;3.288;2022-07-31T02:20:12;19.10;99.90
61145;DHT22;47026;51.208;3.288;2022-07-31T02:22:39;19.00;99.90
61145;DHT22;47026;51.208;3.288;2022-07-31T02:25:05;19.00;99.90
61145;DHT22;47026;51.208;3.288;2022-07-31T02:27:32;19.00;99.90
61145;DHT22;47026;51.208;3.288;2022-07-31T02:29:59;19.00;99.90
61145;DHT22;47026;51.208;3.288;2022-07-31T02:32:28;18.90;99.90
61145;DHT22;47026;51.208;3.288;2022-07-31T02:34:56;19.00;99.90
61145;DHT22;47026;51.208;3.288;2022-07-31T02:37:24;18.90;99.90
61145;DHT22;47026;51.208;3.288;2022-07-31T02:39:53;18.80;99.90
61145;DHT22;47026;51.208;3.288;2022-07-31T02:42:20;18.70;99.90
61145;DHT22;47026;51.208;3.288;2022-07-31T02:44:47;18.60;99.90
61145;DHT22;47026;51.208;3.288;2022-07-31T02:47:14;18.60;99.90
61145;DHT22;47026;51.208;3.288;2022-07-31T02:49:41;18.60;99.90
61145;DHT22;47026;51.208;3.288;2022-07-31T02:52:07;18.60;99.90
61145;DHT22;47026;51.208;3.288;2022-07-31T02:54:35;18.50;99.90
61145;DHT22;47026;51.208;3.288;2022-07-31T02:57:03;18.50;99.90
61145;DHT22;47026;51.208;3.288;2022-07-31T02:59:29;18.70;99.90
61145;DHT22;47026;51.208;3.288;2022-07-31T03:01:57;18.60;99.90
61145;DHT22;47026;51.208;3.288;2022-07-31T03:04:23;18.60;99.90
61145;DHT22;47026;51.208;3.288;2022-07-31T03:06:49;18.60;99.90
61145;DHT22;47026;51.208;3.288;2022-07-31T03:09:15;18.80;99.90
61145;DHT22;47026;51.208;3.288;2022-07-31T03:11:41;18.70;99.90
61145;DHT22;47026;51.208;3.288;2022-07-31T03:14:08;18.60;99.90
61145;DHT22;47026;51.208;3.288;2022-07-31T03:16:39;18.70;99.90
61145;DHT22;47026;51.208;3.288;2022-07-31T03:19:07;18.70;99.90
61145;DHT22;47026;51.208;3.288;2022-07-31T03:21:33;18.70;99.90
61145;DHT22;47026;51.208;3.288;2022-07-31T03:24:01;18.70;99.90
61145;DHT22;47026;51.208;3.288;2022-07-31T03:26:28;18.80;99.90
61145;DHT22;47026;51.208;3.288;2022-07-31T03:28:54;18.90;99.90
61145;DHT22;47026;51.208;3.288;2022-07-31T03:31:20;18.80;99.90
61145;DHT22;47026;51.208;3.288;2022-07-31T03:33:46;18.80;99.90
61145;DHT22;47026;51.208;3.288;2022-07-31T03:36:12;18.90;99.90
61145;DHT22;47026;51.208;3.288;2022-07-31T03:38:39;18.80;99.90
61145;DHT22;47026;51.208;3.288;2022-07-31T03:41:05;18.80;99.90
61145;DHT22;47026;51.208;3.288;2022-07-31T03:43:31;18.80;99.90
61145;DHT22;47026;51.208;3.288;2022-07-31T03:45:59;18.70;99.90
61145;DHT22;47026;51.208;3.288;2022-07-31T03:48:27;18.80;99.90
61145;DHT22;47026;51.208;3.288;2022-07-31T03:50:54;18.80;99.90
61145;DHT22;47026;51.208;3.288;2022-07-31T03:53:21;18.70;99.90
61145;DHT22;47026;51.208;3.288;2022-07-31T03:55:48;18.70;99.90
61145;DHT22;47026;51.208;3.288;2022-07-31T03:58:14;18.70;99.90
61145;DHT22;47026;51.208;3.288;2022-07-31T04:00:43;18.80;99.90
61145;DHT22;47026;51.208;3.288;2022-07-31T04:03:11;18.70;99.90
61145;DHT22;47026;51.208;3.288;2022-07-31T04:05:39;18.70;99.90
61145;DHT22;47026;51.208;3.288;2022-07-31T04:08:06;18.70;99.90
61145;DHT22;47026;51.208;3.288;2022-07-31T04:10:32;18.70;99.90
61145;DHT22;47026;51.208;3.288;2022-07-31T04:12:58;18.70;99.90
61145;DHT22;47026;51.208;3.288;2022-07-31T04:15:24;18.90;99.90
61145;DHT22;47026;51.208;3.288;2022-07-31T04:17:50;18.90;99.90
61145;DHT22;47026;51.208;3.288;2022-07-31T04:20:16;19.00;99.90
61145;DHT22;47026;51.208;3.288;2022-07-31T04:22:43;19.00;99.90
61145;DHT22;47026;51.208;3.288;2022-07-31T04:25:09;18.90;99.90
61145;DHT22;47026;51.208;3.288;2022-07-31T04:27:35;18.80;99.90
61145;DHT22;47026;51.208;3.288;2022-07-31T04:30:01;18.70;99.90
61145;DHT22;47026;51.208;3.288;2022-07-31T04:32:27;18.70;99.90
61145;DHT22;47026;51.208;3.288;2022-07-31T04:34:53;18.80;99.90
61145;DHT22;47026;51.208;3.288;2022-07-31T04:37:19;18.80;99.90
61145;DHT22;47026;51.208;3.288;2022-07-31T04:39:45;18.80;99.90
61145;DHT22;47026;51.208;3.288;2022-07-31T04:42:11;18.80;99.90
61145;DHT22;47026;51.208;3.288;2022-07-31T04:44:37;18.70;99.90
61145;DHT22;47026;51.208;3.288;2022-07-31T04:47:04;18.70;99.90
61145;DHT22;47026;51.208;3.288;2022-07-31T04:49:31;18.90;99.90
61145;DHT22;47026;51.208;3.288;2022-07-31T04:51:58;19.00;99.90
61145;DHT22;47026;51.208;3.288;2022-07-31T04:54:25;18.80;99.90
61145;DHT22;47026;51.208;3.288;2022-07-31T04:56:51;18.90;99.90
61145;DHT22;47026;51.208;3.288;2022-07-31T04:59:18;18.90;99.90
61145;DHT22;47026;51.208;3.288;2022-07-31T05:01:45;18.90;99.90
61145;DHT22;47026;51.208;3.288;2022-07-31T05:04:11;19.10;99.90
61145;DHT22;47026;51.208;3.288;2022-07-31T05:06:38;19.10;99.90
61145;DHT22;47026;51.208;3.288;2022-07-31T05:09:07;19.20;99.90
61145;DHT22;47026;51.208;3.288;2022-07-31T05:11:34;19.30;99.90
61145;DHT22;47026;51.208;3.288;2022-07-31T05:14:02;19.20;99.90
61145;DHT22;47026;51.208;3.288;2022-07-31T05:16:29;19.30;99.90
61145;DHT22;47026;51.208;3.288;2022-07-31T05:18:55;19.30;99.90
61145;DHT22;47026;51.208;3.288;2022-07-31T05:21:22;19.40;99.90
61145;DHT22;47026;51.208;3.288;2022-07-31T05:23:49;19.50;99.90
61145;DHT22;47026;51.208;3.288;2022-07-31T05:26:17;19.40;99.90
61145;DHT22;47026;51.208;3.288;2022-07-31T05:28:43;19.30;99.90
61145;DHT22;47026;51.208;3.288;2022-07-31T05:31:10;19.30;99.90
61145;DHT22;47026;51.208;3.288;2022-07-31T05:33:36;19.30;99.90
61145;DHT22;47026;51.208;3.288;2022-07-31T05:36:03;19.50;99.90
61145;DHT22;47026;51.208;3.288;2022-07-31T05:38:29;19.50;99.90
61145;DHT22;47026;51.208;3.288;2022-07-31T05:40:55;19.60;99.90
61145;DHT22;47026;51.208;3.288;2022-07-31T05:43:21;19.60;99.90
61145;DHT22;47026;51.208;3.288;2022-07-31T05:45:47;19.50;99.90
61145;DHT22;47026;51.208;3.288;2022-07-31T05:48:14;19.50;99.90
61145;DHT22;47026;51.208;3.288;2022-07-31T05:50:44;19.60;99.90
61145;DHT22;47026;51.208;3.288;2022-07-31T05:53:11;19.60;99.90
61145;DHT22;47026;51.208;3.288;2022-07-31T05:55:40;19.70;99.90
61145;DHT22;47026;51.208;3.288;2022-07-31T05:58:07;19.70;99.90
61145;DHT22;47026;51.208;3.288;2022-07-31T06:00:33;19.70;99.90
61145;DHT22;47026;51.208;3.288;2022-07-31T06:02:59;19.70;99.90
61145;DHT22;47026;51.208;3.288;2022-07-31T06:05:28;19.60;99.90
61145;DHT22;47026;51.208;3.288;2022-07-31T06:07:55;19.50;99.90
61145;DHT22;47026;51.208;3.288;2022-07-31T06:10:22;19.60;99.90
61145;DHT22;47026;51.208;3.288;2022-07-31T06:12:48;19.70;99.90
61145;DHT22;47026;51.208;3.288;2022-07-31T06:15:14;19.60;99.90
61145;DHT22;47026;51.208;3.288;2022-07-31T06:17:41;19.60;99.90
61145;DHT22;47026;51.208;3.288;2022-07-31T06:20:08;19.50;99.90
61145;DHT22;47026;51.208;3.288;2022-07-31T06:22:35;19.80;99.90
61145;DHT22;47026;51.208;3.288;2022-07-31T06:25:01;19.80;99.90
61145;DHT22;47026;51.208;3.288;2022-07-31T06:27:27;19.90;99.90
61145;DHT22;47026;51.208;3.288;2022-07-31T06:29:53;20.00;99.90
61145;DHT22;47026;51.208;3.288;2022-07-31T06:32:21;20.10;99.90
61145;DHT22;47026;51.208;3.288;2022-07-31T06:34:47;20.30;99.90
61145;DHT22;47026;51.208;3.288;2022-07-31T06:37:13;20.40;99.90
61145;DHT22;47026;51.208;3.288;2022-07-31T06:39:39;20.50;99.90
61145;DHT22;47026;51.208;3.288;2022-07-31T06:42:05;20.70;99.90
61145;DHT22;47026;51.208;3.288;2022-07-31T06:44:32;20.70;99.90
61145;DHT22;47026;51.208;3.288;2022-07-31T06:46:59;20.70;99.90
61145;DHT22;47026;51.208;3.288;2022-07-31T06:49:25;20.80;99.90
61145;DHT22;47026;51.208;3.288;2022-07-31T06:51:51;20.90;99.90
61145;DHT22;47026;51.208;3.288;2022-07-31T06:54:17;21.10;99.90
61145;DHT22;47026;51.208;3.288;2022-07-31T06:56:43;21.30;99.90
61145;DHT22;47026;51.208;3.288;2022-07-31T06:59:10;21.30;99.90
61145;DHT22;47026;51.208;3.288;2022-07-31T07:01:48;21.60;99.90
61145;DHT22;47026;51.208;3.288;2022-07-31T07:04:13;21.80;99.90
61145;DHT22;47026;51.208;3.288;2022-07-31T07:06:39;22.10;99.90
61145;DHT22;47026;51.208;3.288;2022-07-31T07:09:05;22.30;99.90
61145;DHT22;47026;51.208;3.288;2022-07-31T07:11:31;22.40;99.90
61145;DHT22;47026;51.208;3.288;2022-07-31T07:13:57;22.50;99.90
61145;DHT22;47026;51.208;3.288;2022-07-31T07:16:23;22.60;99.90
61145;DHT22;47026;51.208;3.288;2022-07-31T07:18:49;22.70;99.90
61145;DHT22;47026;51.208;3.288;2022-07-31T07:21:15;22.70;99.90
61145;DHT22;47026;51.208;3.288;2022-07-31T07:23:42;22.90;99.90
61145;DHT22;47026;51.208;3.288;2022-07-31T07:26:08;23.20;99.90
61145;DHT22;47026;51.208;3.288;2022-07-31T07:28:34;23.40;99.90
61145;DHT22;47026;51.208;3.288;2022-07-31T07:31:01;23.20;99.90
61145;DHT22;47026;51.208;3.288;2022-07-31T07:33:27;23.00;99.90
61145;DHT22;47026;51.208;3.288;2022-07-31T07:35:53;22.80;99.90
61145;DHT22;47026;51.208;3.288;2022-07-31T07:38:19;22.60;99.90
61145;DHT22;47026;51.208;3.288;2022-07-31T07:40:45;22.60;99.90
61145;DHT22;47026;51.208;3.288;2022-07-31T07:43:11;22.70;99.90
61145;DHT22;47026;51.208;3.288;2022-07-31T07:45:37;22.70;99.90
61145;DHT22;47026;51.208;3.288;2022-07-31T07:48:05;22.80;99.90
61145;DHT22;47026;51.208;3.288;2022-07-31T07:50:31;22.50;99.90
61145;DHT22;47026;51.208;3.288;2022-07-31T07:52:57;22.70;99.90
61145;DHT22;47026;51.208;3.288;2022-07-31T07:55:23;22.50;99.90
61145;DHT22;47026;51.208;3.288;2022-07-31T07:57:50;22.50;99.90
61145;DHT22;47026;51.208;3.288;2022-07-31T08:00:20;22.60;99.90
61145;DHT22;47026;51.208;3.288;2022-07-31T08:02:46;22.70;99.90
61145;DHT22;47026;51.208;3.288;2022-07-31T08:05:14;22.90;99.90
61145;DHT22;47026;51.208;3.288;2022-07-31T08:07:41;23.40;99.90
61145;DHT22;47026;51.208;3.288;2022-07-31T08:10:07;23.40;99.90
61145;DHT22;47026;51.208;3.288;2022-07-31T08:12:34;23.00;99.90
61145;DHT22;47026;51.208;3.288;2022-07-31T08:15:01;22.90;99.90
61145;DHT22;47026;51.208;3.288;2022-07-31T08:17:27;22.90;99.90
61145;DHT22;47026;51.208;3.288;2022-07-31T08:19:52;23.20;99.90
61145;DHT22;47026;51.208;3.288;2022-07-31T08:22:19;23.40;99.90
61145;DHT22;47026;51.208;3.288;2022-07-31T08:24:45;23.40;99.90
61145;DHT22;47026;51.208;3.288;2022-07-31T08:27:12;23.40;99.90
61145;DHT22;47026;51.208;3.288;2022-07-31T08:29:54;23.40;99.90
61145;DHT22;47026;51.208;3.288;2022-07-31T08:32:22;23.50;99.90
61145;DHT22;47026;51.208;3.288;2022-07-31T08:34:48;23.60;99.90
61145;DHT22;47026;51.208;3.288;2022-07-31T08:37:14;23.90;99.90
61145;DHT22;47026;51.208;3.288;2022-07-31T08:39:44;24.00;99.90
61145;DHT22;47026;51.208;3.288;2022-07-31T08:42:12;23.90;99.90
61145;DHT22;47026;51.208;3.288;2022-07-31T08:44:39;24.10;99.90
61145;DHT22;47026;51.208;3.288;2022-07-31T08:47:06;24.10;99.90
61145;DHT22;47026;51.208;3.288;2022-07-31T08:49:46;23.80;99.90
61145;DHT22;47026;51.208;3.288;2022-07-31T08:52:23;23.70;99.90
61145;DHT22;47026;51.208;3.288;2022-07-31T08:54:50;23.30;99.90
61145;DHT22;47026;51.208;3.288;2022-07-31T08:57:16;23.40;99.90
61145;DHT22;47026;51.208;3.288;2022-07-31T08:59:42;23.60;99.90
61145;DHT22;47026;51.208;3.288;2022-07-31T09:02:09;23.40;99.90
61145;DHT22;47026;51.208;3.288;2022-07-31T09:04:35;23.00;99.90
61145;DHT22;47026;51.208;3.288;2022-07-31T09:07:04;23.00;99.90
61145;DHT22;47026;51.208;3.288;2022-07-31T09:09:30;22.80;99.90
61145;DHT22;47026;51.208;3.288;2022-07-31T09:11:56;22.80;99.90
61145;DHT22;47026;51.208;3.288;2022-07-31T09:14:28;22.90;99.90
61145;DHT22;47026;51.208;3.288;2022-07-31T09:16:55;22.90;99.90
61145;DHT22;47026;51.208;3.288;2022-07-31T09:19:22;22.70;99.90
61145;DHT22;47026;51.208;3.288;2022-07-31T09:21:49;22.70;99.90
61145;DHT22;47026;51.208;3.288;2022-07-31T09:24:30;22.60;99.90
61145;DHT22;47026;51.208;3.288;2022-07-31T09:27:07;22.90;99.90
61145;DHT22;47026;51.208;3.288;2022-07-31T09:29:40;22.70;99.90
61145;DHT22;47026;51.208;3.288;2022-07-31T09:32:18;22.40;99.90
61145;DHT22;47026;51.208;3.288;2022-07-31T09:34:45;22.40;99.90
61145;DHT22;47026;51.208;3.288;2022-07-31T09:37:12;22.40;99.90
61145;DHT22;47026;51.208;3.288;2022-07-31T09:39:39;22.50;99.90
61145;DHT22;47026;51.208;3.288;2022-07-31T09:42:05;22.50;99.90
61145;DHT22;47026;51.208;3.288;2022-07-31T09:44:38;22.30;99.90
61145;DHT22;47026;51.208;3.288;2022-07-31T09:47:05;22.20;99.90
61145;DHT22;47026;51.208;3.288;2022-07-31T09:49:34;22.10;99.90
61145;DHT22;47026;51.208;3.288;2022-07-31T09:52:00;22.00;99.90
61145;DHT22;47026;51.208;3.288;2022-07-31T09:54:28;22.10;99.90
61145;DHT22;47026;51.208;3.288;2022-07-31T09:56:54;22.20;99.90
61145;DHT22;47026;51.208;3.288;2022-07-31T09:59:20;22.50;99.90
61145;DHT22;47026;51.208;3.288;2022-07-31T10:01:47;22.90;99.90
61145;DHT22;47026;51.208;3.288;2022-07-31T10:04:16;23.00;99.90
61145;DHT22;47026;51.208;3.288;2022-07-31T10:06:44;23.00;99.90
61145;DHT22;47026;51.208;3.288;2022-07-31T10:09:12;23.30;99.90
61145;DHT22;47026;51.208;3.288;2022-07-31T10:11:38;23.40;99.90
61145;DHT22;47026;51.208;3.288;2022-07-31T10:14:10;23.20;99.90
61145;DHT22;47026;51.208;3.288;2022-07-31T10:16:39;23.30;99.90
61145;DHT22;47026;51.208;3.288;2022-07-31T10:19:08;23.20;99.90
61145;DHT22;47026;51.208;3.288;2022-07-31T10:21:40;23.40;99.90
61145;DHT22;47026;51.208;3.288;2022-07-31T10:24:08;23.70;99.90
61145;DHT22;47026;51.208;3.288;2022-07-31T10:26:34;23.90;99.90
61145;DHT22;47026;51.208;3.288;2022-07-31T10:29:01;23.80;99.90
61145;DHT22;47026;51.208;3.288;2022-07-31T10:31:27;24.00;99.90
61145;DHT22;47026;51.208;3.288;2022-07-31T10:33:55;24.20;99.90
61145;DHT22;47026;51.208;3.288;2022-07-31T10:36:24;24.10;99.90
61145;DHT22;47026;51.208;3.288;2022-07-31T10:39:07;24.00;99.90
61145;DHT22;47026;51.208;3.288;2022-07-31T10:44:20;24.40;99.90
61145;DHT22;47026;51.208;3.288;2022-07-31T10:46:48;24.40;99.90
61145;DHT22;47026;51.208;3.288;2022-07-31T10:49:14;24.40;99.90
61145;DHT22;47026;51.208;3.288;2022-07-31T10:51:50;24.80;99.90
61145;DHT22;47026;51.208;3.288;2022-07-31T10:54:16;24.70;99.90
61145;DHT22;47026;51.208;3.288;2022-07-31T10:56:45;24.80;99.90
61145;DHT22;47026;51.208;3.288;2022-07-31T10:59:12;24.50;99.90
61145;DHT22;47026;51.208;3.288;2022-07-31T11:02:04;24.50;99.90
61145;DHT22;47026;51.208;3.288;2022-07-31T11:04:31;24.50;99.90
61145;DHT22;47026;51.208;3.288;2022-07-31T11:06:57;24.80;99.90
61145;DHT22;47026;51.208;3.288;2022-07-31T11:09:28;25.20;99.90
61145;DHT22;47026;51.208;3.288;2022-07-31T11:11:54;25.90;99.90
61145;DHT22;47026;51.208;3.288;2022-07-31T11:14:34;26.00;99.90
61145;DHT22;47026;51.208;3.288;2022-07-31T11:17:00;26.70;99.90
61145;DHT22;47026;51.208;3.288;2022-07-31T11:19:39;27.50;99.90
61145;DHT22;47026;51.208;3.288;2022-07-31T11:22:13;28.40;99.90
61145;DHT22;47026;51.208;3.288;2022-07-31T11:24:40;28.30;99.90
61145;DHT22;47026;51.208;3.288;2022-07-31T11:27:06;27.60;99.90
61145;DHT22;47026;51.208;3.288;2022-07-31T11:29:37;27.10;99.90
61145;DHT22;47026;51.208;3.288;2022-07-31T11:32:16;26.50;99.90
61145;DHT22;47026;51.208;3.288;2022-07-31T11:34:48;25.90;99.90
61145;DHT22;47026;51.208;3.288;2022-07-31T11:37:19;25.60;99.90
61145;DHT22;47026;51.208;3.288;2022-07-31T11:39:50;25.30;99.90
61145;DHT22;47026;51.208;3.288;2022-07-31T11:42:18;25.00;99.90
61145;DHT22;47026;51.208;3.288;2022-07-31T11:44:44;24.90;99.90
61145;DHT22;47026;51.208;3.288;2022-07-31T11:47:10;24.90;99.90
61145;DHT22;47026;51.208;3.288;2022-07-31T11:49:36;25.00;99.90
61145;DHT22;47026;51.208;3.288;2022-07-31T11:52:05;25.00;99.90
61145;DHT22;47026;51.208;3.288;2022-07-31T11:54:34;25.00;99.90
61145;DHT22;47026;51.208;3.288;2022-07-31T11:57:00;25.40;99.90
61145;DHT22;47026;51.208;3.288;2022-07-31T11:59:36;25.60;99.90
61145;DHT22;47026;51.208;3.288;2022-07-31T12:02:11;25.40;99.90
61145;DHT22;47026;51.208;3.288;2022-07-31T12:04:38;25.70;99.90
61145;DHT22;47026;51.208;3.288;2022-07-31T12:07:06;26.00;99.90
61145;DHT22;47026;51.208;3.288;2022-07-31T12:09:34;26.10;99.90
61145;DHT22;47026;51.208;3.288;2022-07-31T12:12:01;26.10;99.90
61145;DHT22;47026;51.208;3.288;2022-07-31T12:16:53;26.30;99.90
61145;DHT22;47026;51.208;3.288;2022-07-31T12:19:32;26.70;99.90
61145;DHT22;47026;51.208;3.288;2022-07-31T12:21:58;27.60;99.90
61145;DHT22;47026;51.208;3.288;2022-07-31T12:24:24;28.10;99.90
61145;DHT22;47026;51.208;3.288;2022-07-31T12:26:54;28.00;99.90
61145;DHT22;47026;51.208;3.288;2022-07-31T12:29:35;27.50;99.90
61145;DHT22;47026;51.208;3.288;2022-07-31T12:32:01;27.30;99.90
61145;DHT22;47026;51.208;3.288;2022-07-31T12:34:31;27.20;99.90
61145;DHT22;47026;51.208;3.288;2022-07-31T12:37:08;27.60;99.90
61145;DHT22;47026;51.208;3.288;2022-07-31T12:39:49;27.80;99.90
61145;DHT22;47026;51.208;3.288;2022-07-31T12:42:23;27.40;99.90
61145;DHT22;47026;51.208;3.288;2022-07-31T12:44:50;27.60;99.90
61145;DHT22;47026;51.208;3.288;2022-07-31T12:47:23;27.70;99.90
61145;DHT22;47026;51.208;3.288;2022-07-31T12:49:49;27.50;99.90
61145;DHT22;47026;51.208;3.288;2022-07-31T12:52:15;27.10;99.90
61145;DHT22;47026;51.208;3.288;2022-07-31T12:54:41;27.10;99.90
61145;DHT22;47026;51.208;3.288;2022-07-31T12:57:08;26.70;99.90
61145;DHT22;47026;51.208;3.288;2022-07-31T12:59:33;26.30;99.90
61145;DHT22;47026;51.208;3.288;2022-07-31T13:02:01;25.70;99.90
61145;DHT22;47026;51.208;3.288;2022-07-31T13:04:27;25.50;99.90
61145;DHT22;47026;51.208;3.288;2022-07-31T13:06:53;25.60;99.90
61145;DHT22;47026;51.208;3.288;2022-07-31T13:09:19;25.60;99.90
61145;DHT22;47026;51.208;3.288;2022-07-31T13:11:45;25.70;99.90
61145;DHT22;47026;51.208;3.288;2022-07-31T13:14:11;25.40;99.90
61145;DHT22;47026;51.208;3.288;2022-07-31T13:16:37;25.40;99.90
61145;DHT22;47026;51.208;3.288;2022-07-31T13:19:02;25.60;99.90
61145;DHT22;47026;51.208;3.288;2022-07-31T13:21:30;25.50;99.90
61145;DHT22;47026;51.208;3.288;2022-07-31T13:23:55;25.80;99.90
61145;DHT22;47026;51.208;3.288;2022-07-31T13:26:22;25.80;99.90
61145;DHT22;47026;51.208;3.288;2022-07-31T13:28:48;26.00;99.90
61145;DHT22;47026;51.208;3.288;2022-07-31T13:31:14;25.70;99.90
61145;DHT22;47026;51.208;3.288;2022-07-31T13:33:40;25.60;99.90
61145;DHT22;47026;51.208;3.288;2022-07-31T13:36:06;25.50;99.90
61145;DHT22;47026;51.208;3.288;2022-07-31T13:38:32;25.60;99.90
61145;DHT22;47026;51.208;3.288;2022-07-31T13:40:58;25.40;99.90
61145;DHT22;47026;51.208;3.288;2022-07-31T13:43:42;25.20;99.90
61145;DHT22;47026;51.208;3.288;2022-07-31T13:46:08;25.00;99.90
61145;DHT22;47026;51.208;3.288;2022-07-31T13:48:34;24.90;99.90
61145;DHT22;47026;51.208;3.288;2022-07-31T13:51:00;24.90;99.90
61145;DHT22;47026;51.208;3.288;2022-07-31T13:53:27;24.90;99.90
61145;DHT22;47026;51.208;3.288;2022-07-31T13:55:53;24.70;99.90
61145;DHT22;47026;51.208;3.288;2022-07-31T13:58:19;24.80;99.90
61145;DHT22;47026;51.208;3.288;2022-07-31T14:00:46;24.80;99.90
61145;DHT22;47026;51.208;3.288;2022-07-31T14:03:12;24.90;99.90
61145;DHT22;47026;51.208;3.288;2022-07-31T14:05:38;24.90;99.90
61145;DHT22;47026;51.208;3.288;2022-07-31T14:08:05;24.90;99.90
61145;DHT22;47026;51.208;3.288;2022-07-31T14:10:31;25.10;99.90
61145;DHT22;47026;51.208;3.288;2022-07-31T14:12:56;25.50;99.90
61145;DHT22;47026;51.208;3.288;2022-07-31T14:15:22;25.60;99.90
61145;DHT22;47026;51.208;3.288;2022-07-31T14:17:48;25.60;99.90
61145;DHT22;47026;51.208;3.288;2022-07-31T14:20:15;26.00;99.90
61145;DHT22;47026;51.208;3.288;2022-07-31T14:22:41;26.20;99.90
61145;DHT22;47026;51.208;3.288;2022-07-31T14:25:08;26.20;99.90
61145;DHT22;47026;51.208;3.288;2022-07-31T14:27:35;26.20;99.90
61145;DHT22;47026;51.208;3.288;2022-07-31T14:30:07;25.90;99.90
61145;DHT22;47026;51.208;3.288;2022-07-31T14:32:33;25.80;99.90
61145;DHT22;47026;51.208;3.288;2022-07-31T14:34:59;25.50;99.90
61145;DHT22;47026;51.208;3.288;2022-07-31T14:37:25;25.20;99.90
61145;DHT22;47026;51.208;3.288;2022-07-31T14:39:51;25.30;99.90
61145;DHT22;47026;51.208;3.288;2022-07-31T14:42:17;25.30;99.90
61145;DHT22;47026;51.208;3.288;2022-07-31T14:44:44;25.20;99.90
61145;DHT22;47026;51.208;3.288;2022-07-31T14:47:10;25.10;99.90
61145;DHT22;47026;51.208;3.288;2022-07-31T14:49:37;25.00;99.90
61145;DHT22;47026;51.208;3.288;2022-07-31T14:52:03;25.00;99.90
61145;DHT22;47026;51.208;3.288;2022-07-31T14:54:29;24.60;99.90
61145;DHT22;47026;51.208;3.288;2022-07-31T14:56:55;24.70;99.90
61145;DHT22;47026;51.208;3.288;2022-07-31T14:59:23;24.90;99.90
61145;DHT22;47026;51.208;3.288;2022-07-31T15:01:49;25.10;99.90
61145;DHT22;47026;51.208;3.288;2022-07-31T15:04:15;25.30;99.90
61145;DHT22;47026;51.208;3.288;2022-07-31T15:06:41;25.20;99.90
61145;DHT22;47026;51.208;3.288;2022-07-31T15:09:07;24.70;99.90
61145;DHT22;47026;51.208;3.288;2022-07-31T15:11:32;24.80;99.90
61145;DHT22;47026;51.208;3.288;2022-07-31T15:13:58;24.50;99.90
61145;DHT22;47026;51.208;3.288;2022-07-31T15:16:24;24.50;99.90
61145;DHT22;47026;51.208;3.288;2022-07-31T15:18:52;24.50;99.90
61145;DHT22;47026;51.208;3.288;2022-07-31T15:21:18;24.60;99.90
61145;DHT22;47026;51.208;3.288;2022-07-31T15:23:44;24.80;99.90
61145;DHT22;47026;51.208;3.288;2022-07-31T15:26:22;24.70;99.90
61145;DHT22;47026;51.208;3.288;2022-07-31T15:28:48;24.30;99.90
61145;DHT22;47026;51.208;3.288;2022-07-31T15:31:14;24.30;99.90
61145;DHT22;47026;51.208;3.288;2022-07-31T15:33:41;24.50;99.90
61145;DHT22;47026;51.208;3.288;2022-07-31T15:36:07;24.70;99.90
61145;DHT22;47026;51.208;3.288;2022-07-31T15:38:33;24.60;99.90
61145;DHT22;47026;51.208;3.288;2022-07-31T15:41:01;24.60;99.90
61145;DHT22;47026;51.208;3.288;2022-07-31T15:43:27;24.40;99.90